createdAt,value
2023-02-14T00:02:24.234Z,2.9
2023-02-14T00:07:40.625Z,2.9
2023-02-14T00:12:46.992Z,2.8
2023-02-14T00:17:52.519Z,2.7
2023-02-14T00:23:27.922Z,2.7
2023-02-14T00:28:30.412Z,2.7
2023-02-14T00:33:12.848Z,2.6
2023-02-14T00:38:19.107Z,2.6
2023-02-14T00:43:15.483Z,2.5
2023-02-14T00:53:38.259Z,2.4
2023-02-14T00:58:44.784Z,2.4
2023-02-14T01:03:51.401Z,2.3
2023-02-14T01:08:57.748Z,2.3
2023-02-14T01:14:04.335Z,2.3
2023-02-14T01:19:00.832Z,2.2
2023-02-14T01:24:17.104Z,2.2
2023-02-14T01:30:01.698Z,2.1
2023-02-14T01:35:09.014Z,2.1
2023-02-14T01:40:15.436Z,2.1
2023-02-14T01:45:21.823Z,2.1
2023-02-14T01:50:28.269Z,2.1
2023-02-14T01:55:24.598Z,2.0
2023-02-14T02:00:40.999Z,2.0
2023-02-14T02:10:43.871Z,2.0
2023-02-14T02:16:00.273Z,1.9
2023-02-14T02:21:06.885Z,1.9
2023-02-14T02:26:13.333Z,1.9
2023-02-14T02:31:39.869Z,1.9
2023-02-14T02:36:16.093Z,1.8
2023-02-14T02:41:32.578Z,1.8
2023-02-14T02:46:38.960Z,1.8
2023-02-14T02:51:59.390Z,1.8
2023-02-14T02:56:51.734Z,1.7
2023-02-14T03:06:54.501Z,1.7
2023-02-14T03:12:00.915Z,1.7
2023-02-14T03:17:17.287Z,1.6
2023-02-14T03:22:43.855Z,1.6
2023-02-14T03:27:30.232Z,1.6
2023-02-14T03:32:36.584Z,1.6
2023-02-14T03:37:42.963Z,1.6
2023-02-14T03:42:49.372Z,1.6
2023-02-14T03:47:55.756Z,1.5
2023-02-14T03:53:06.159Z,1.5
2023-02-14T03:58:12.297Z,1.4
2023-02-14T04:03:18.701Z,1.4
2023-02-14T04:08:49.072Z,1.4
2023-02-14T04:13:21.416Z,1.4
2023-02-14T04:18:39.428Z,1.3
2023-02-14T04:23:45.873Z,1.3
2023-02-14T04:28:52.354Z,1.2
2023-02-14T04:33:58.701Z,1.2
2023-02-14T04:40:20.769Z,1.2
2023-02-14T04:44:35.107Z,1.1
2023-02-14T04:49:21.424Z,1.1
2023-02-14T05:04:40.552Z,1.0
2023-02-14T05:09:46.935Z,0.9
2023-02-14T05:14:53.437Z,0.9
2023-02-14T05:25:06.191Z,0.8
2023-02-14T05:30:12.733Z,0.7
2023-02-14T05:35:19.038Z,0.7
2023-02-14T05:45:31.805Z,0.6
2023-02-14T05:50:39.314Z,0.5
2023-02-14T05:55:45.695Z,0.5
2023-02-14T06:00:52.080Z,0.4
2023-02-14T06:05:58.477Z,0.4
2023-02-14T06:11:04.828Z,0.4
2023-02-14T06:16:11.314Z,0.3
2023-02-14T06:21:17.609Z,0.3
2023-02-14T06:31:30.416Z,0.2
2023-02-14T06:36:56.783Z,0.1
2023-02-14T06:42:07.153Z,0.1
2023-02-14T06:46:39.552Z,0.1
2023-02-14T06:51:55.944Z,0.0
2023-02-14T06:57:02.441Z,0.0
2023-02-14T07:02:32.974Z,0.0
2023-02-14T07:07:16.834Z,0.0
2023-02-14T07:12:23.232Z,-0.1
2023-02-14T07:17:29.592Z,0.0
2023-02-14T07:22:35.962Z,-0.1
2023-02-14T07:27:45.938Z,-0.1
2023-02-14T07:32:52.317Z,-0.1
2023-02-14T07:37:58.697Z,-0.1
2023-02-14T07:43:05.094Z,0.0
2023-02-14T07:48:11.618Z,0.0
2023-02-14T07:53:18.175Z,0.0
2023-02-14T07:58:24.580Z,0.1
2023-02-14T08:03:20.959Z,0.3
2023-02-14T08:08:37.355Z,0.7
2023-02-14T08:13:43.774Z,1.4
2023-02-14T08:18:50.129Z,2.2
2023-02-14T08:23:56.503Z,3.2
2023-02-14T08:29:47.010Z,4.2
2023-02-14T08:34:09.272Z,5.0
2023-02-14T08:39:17.220Z,5.9
2023-02-14T08:44:23.618Z,6.8
2023-02-14T08:49:30.126Z,7.7
2023-02-14T08:59:43.378Z,9.4
2023-02-14T09:06:02.998Z,9.8
2023-02-14T09:09:57.215Z,10.1
2023-02-14T09:15:03.699Z,10.3
2023-02-14T09:30:42.883Z,11.2
2023-02-14T09:35:29.246Z,11.0
2023-02-14T09:40:35.696Z,10.7
2023-02-14T09:45:42.195Z,10.3
2023-02-14T09:50:48.443Z,10.0
2023-02-14T09:55:54.842Z,9.8
2023-02-14T10:00:51.204Z,9.5
2023-02-14T10:06:07.576Z,9.3
2023-02-14T10:11:13.994Z,9.1
2023-02-14T10:16:20.358Z,8.9
2023-02-14T10:21:26.716Z,8.8
2023-02-14T10:26:33.296Z,8.8
2023-02-14T10:31:39.796Z,8.9
2023-02-14T10:36:45.975Z,9.1
2023-02-14T10:41:52.363Z,9.7
2023-02-14T10:46:48.876Z,10.6
2023-02-14T10:52:05.217Z,11.6
2023-02-14T10:57:12.150Z,12.7
2023-02-14T11:02:18.565Z,13.9
2023-02-14T11:07:28.519Z,14.9
2023-02-14T11:12:54.962Z,15.9
2023-02-14T11:17:41.508Z,16.8
2023-02-14T11:22:47.875Z,17.6
2023-02-14T11:27:54.267Z,18.3
2023-02-14T11:33:00.677Z,19.0
2023-02-14T11:38:10.616Z,19.6
2023-02-14T11:43:41.032Z,19.9
2023-02-14T11:48:39.130Z,20.6
2023-02-14T11:53:29.755Z,21.1
2023-02-14T11:58:36.129Z,21.5
2023-02-14T12:03:42.573Z,21.3
2023-02-14T12:08:48.999Z,21.9
2023-02-14T12:13:55.381Z,22.4
2023-02-14T12:19:26.409Z,22.7
2023-02-14T12:24:08.731Z,23.1
2023-02-14T12:29:46.742Z,23.4
2023-02-14T12:34:15.049Z,23.6
2023-02-14T12:39:31.523Z,23.8
2023-02-14T12:51:00.450Z,24.2
2023-02-14T12:54:54.251Z,24.3
2023-02-14T13:00:00.740Z,24.3
2023-02-14T13:05:07.116Z,24.3
2023-02-14T13:10:13.526Z,24.2
2023-02-14T13:25:36.208Z,23.9
2023-02-14T13:31:06.654Z,23.7
2023-02-14T13:35:48.918Z,23.6
2023-02-14T13:40:55.324Z,23.5
2023-02-14T13:46:01.248Z,23.3
2023-02-14T13:51:28.198Z,23.2
2023-02-14T14:11:39.153Z,22.7
2023-02-14T14:17:29.599Z,22.6
2023-02-14T14:21:53.155Z,22.6
2023-02-14T14:27:20.284Z,22.5
2023-02-14T14:32:06.709Z,22.4
2023-02-14T14:37:11.985Z,22.3
2023-02-14T14:42:39.413Z,22.3
2023-02-14T14:47:26.720Z,22.2
2023-02-14T14:52:33.097Z,22.1
2023-02-14T14:57:40.028Z,22.1
2023-02-14T15:02:46.768Z,22.0
2023-02-14T15:07:53.108Z,21.9
2023-02-14T15:18:06.395Z,21.8
2023-02-14T15:23:13.933Z,21.7
2023-02-14T15:33:26.708Z,21.3
2023-02-14T15:38:33.081Z,21.0
2023-02-14T15:43:39.466Z,20.6
2023-02-14T15:48:45.869Z,20.3
2023-02-14T15:53:52.235Z,19.8
2023-02-14T15:58:58.750Z,19.5
2023-02-14T16:04:05.166Z,19.0
2023-02-14T16:09:13.101Z,18.6
2023-02-14T16:14:19.489Z,18.2
2023-02-14T16:19:15.866Z,17.8
2023-02-14T16:29:42.223Z,17.0
2023-02-14T16:34:48.610Z,16.7
2023-02-14T16:39:54.964Z,16.3
2023-02-14T16:45:01.418Z,15.9
2023-02-14T16:50:07.971Z,15.6
2023-02-14T16:55:14.400Z,15.3
2023-02-14T17:00:20.774Z,14.9
2023-02-14T17:05:27.170Z,14.6
2023-02-14T17:10:33.527Z,14.3
2023-02-14T17:15:39.946Z,13.9
2023-02-14T17:21:10.346Z,13.6
2023-02-14T17:25:52.661Z,13.3
2023-02-14T17:31:00.803Z,13.0
2023-02-14T17:36:05.423Z,12.8
2023-02-14T17:41:11.838Z,12.4
2023-02-14T17:46:18.228Z,12.2
2023-02-14T17:51:14.550Z,11.9
2023-02-14T17:56:21.151Z,11.6
2023-02-14T18:01:27.778Z,11.4
2023-02-14T18:06:45.682Z,11.1
2023-02-14T18:11:42.077Z,10.9
2023-02-14T18:17:00.014Z,10.6
2023-02-14T18:22:06.406Z,10.4
2023-02-14T18:27:12.818Z,10.2
2023-02-14T18:32:19.161Z,10.0
2023-02-14T18:37:25.557Z,9.7
2023-02-14T18:42:32.024Z,9.5
2023-02-14T18:47:38.381Z,9.3
2023-02-14T18:52:44.739Z,9.1
2023-02-14T18:57:51.162Z,8.9
2023-02-14T19:03:21.687Z,8.7
2023-02-14T19:08:31.653Z,8.6
2023-02-14T19:13:14.067Z,8.4
2023-02-14T19:18:20.445Z,8.2
2023-02-14T19:23:26.817Z,8.0
2023-02-14T19:28:33.262Z,7.9
2023-02-14T19:33:39.726Z,7.7
2023-02-14T19:38:46.123Z,7.6
2023-02-14T19:43:52.683Z,7.4
2023-02-14T19:49:18.937Z,7.3
2023-02-14T19:54:05.269Z,7.1
2023-02-14T19:59:11.699Z,7.0
2023-02-14T20:04:18.062Z,6.8
2023-02-14T20:09:24.445Z,6.7
2023-02-14T20:14:35.922Z,6.6
2023-02-14T20:19:40.826Z,6.4
2023-02-14T20:24:46.230Z,6.3
2023-02-14T20:29:53.846Z,6.2
2023-02-14T20:35:03.749Z,6.0
2023-02-14T20:40:10.154Z,5.9
2023-02-14T20:45:16.538Z,5.8
2023-02-14T20:50:22.919Z,5.7
2023-02-14T20:55:29.306Z,5.6
2023-02-14T21:00:35.880Z,5.4
2023-02-14T21:05:42.099Z,5.3
2023-02-14T21:10:38.593Z,5.2
2023-02-14T21:15:55.285Z,5.1
2023-02-14T21:21:01.973Z,5.0
2023-02-14T21:26:08.020Z,4.9
2023-02-14T21:31:14.616Z,4.8
2023-02-14T21:36:20.790Z,4.7
2023-02-14T21:41:27.177Z,4.6
2023-02-14T21:46:37.266Z,4.5
2023-02-14T21:51:43.511Z,4.4
2023-02-14T21:56:49.987Z,4.3
2023-02-14T22:01:56.475Z,4.2
2023-02-14T22:07:03.319Z,4.1
2023-02-14T22:12:09.863Z,4.0
2023-02-14T22:17:16.253Z,3.9
2023-02-14T22:22:22.610Z,3.9
2023-02-14T22:27:29.009Z,3.8
2023-02-14T22:32:35.427Z,3.7
2023-02-14T22:37:41.832Z,3.6
2023-02-14T22:42:48.218Z,3.5
2023-02-14T22:47:54.616Z,3.4
2023-02-14T22:53:00.968Z,3.4
2023-02-14T22:58:07.353Z,3.3
2023-02-14T23:03:13.769Z,3.2
2023-02-14T23:08:20.158Z,3.1
2023-02-14T23:13:26.567Z,3.0
2023-02-14T23:23:39.294Z,2.9
2023-02-14T23:28:45.793Z,2.8
2023-02-14T23:33:42.221Z,2.8
2023-02-14T23:38:58.595Z,2.7
2023-02-14T23:44:04.969Z,2.6
2023-02-14T23:54:17.779Z,2.5
2023-02-14T23:59:24.131Z,2.4
